createdAt,value
2018-03-03T00:02:22.572Z,112.45
2018-03-03T00:04:49.312Z,121.25
2018-03-03T00:07:15.482Z,133.93
2018-03-03T00:09:42.051Z,117.57
2018-03-03T00:12:09.850Z,132.05
2018-03-03T00:14:35.961Z,123.50
2018-03-03T00:17:02.186Z,113.10
2018-03-03T00:19:28.760Z,109.07
2018-03-03T00:21:54.892Z,126.43
2018-03-03T00:24:22.071Z,106.53
2018-03-03T00:26:48.280Z,108.32
2018-03-03T00:29:15.452Z,117.60
2018-03-03T00:31:41.639Z,117.00
2018-03-03T00:34:07.742Z,106.07
2018-03-03T00:36:33.932Z,116.95
2018-03-03T00:39:00.143Z,107.57
2018-03-03T00:41:27.034Z,116.60
2018-03-03T00:43:53.241Z,119.72
2018-03-03T00:46:19.468Z,120.47
2018-03-03T00:48:45.703Z,122.25
2018-03-03T00:51:12.746Z,124.18
2018-03-03T00:53:38.994Z,120.03
2018-03-03T00:56:05.211Z,113.20
2018-03-03T00:58:31.514Z,119.60
2018-03-03T01:00:57.658Z,120.20
2018-03-03T01:03:24.578Z,110.57
2018-03-03T01:05:50.915Z,120.03
2018-03-03T01:08:17.404Z,113.93
2018-03-03T01:10:44.430Z,116.25
2018-03-03T01:13:10.553Z,116.68
2018-03-03T01:15:36.734Z,126.32
2018-03-03T01:18:05.094Z,111.37
2018-03-03T01:20:31.897Z,110.07
2018-03-03T01:22:59.165Z,126.07
2018-03-03T01:25:26.310Z,122.20
2018-03-03T01:27:52.932Z,118.25
2018-03-03T01:30:19.028Z,116.05
2018-03-03T01:32:45.160Z,117.70
2018-03-03T01:35:14.772Z,123.35
2018-03-03T01:37:41.170Z,121.75
2018-03-03T01:40:07.353Z,118.75
2018-03-03T01:42:33.868Z,121.45
2018-03-03T01:45:00.008Z,111.97
2018-03-03T01:47:26.510Z,115.97
2018-03-03T01:49:54.747Z,102.65
2018-03-03T01:52:20.893Z,107.03
2018-03-03T01:54:47.099Z,117.37
2018-03-03T01:57:14.019Z,113.10
2018-03-03T01:59:41.060Z,118.05
2018-03-03T02:02:07.186Z,109.68
2018-03-03T02:04:33.957Z,123.93
2018-03-03T02:07:00.670Z,110.63
2018-03-03T02:09:27.075Z,121.13
2018-03-03T02:11:54.428Z,117.87
2018-03-03T02:14:20.910Z,124.03
2018-03-03T02:16:47.152Z,116.62
2018-03-03T02:19:13.343Z,115.90
2018-03-03T02:21:39.434Z,99.50
2018-03-03T02:24:05.571Z,109.45
2018-03-03T02:26:31.763Z,115.40
2018-03-03T02:28:58.299Z,117.35
2018-03-03T02:31:24.473Z,115.97
2018-03-03T02:33:51.871Z,117.45
2018-03-03T02:36:19.341Z,111.37
2018-03-03T02:38:46.412Z,114.80
2018-03-03T02:41:12.713Z,107.12
2018-03-03T02:43:40.036Z,107.95
2018-03-03T02:46:06.395Z,117.32
2018-03-03T02:48:32.703Z,113.72
2018-03-03T02:50:58.891Z,109.10
2018-03-03T02:53:25.892Z,115.12
2018-03-03T02:55:52.111Z,112.75
2018-03-03T02:58:18.359Z,120.07
2018-03-03T03:00:46.008Z,121.35
2018-03-03T03:03:12.136Z,121.90
2018-03-03T03:05:38.645Z,113.25
2018-03-03T03:08:05.851Z,110.32
2018-03-03T03:10:32.106Z,107.43
2018-03-03T03:13:00.396Z,115.30
2018-03-03T03:15:26.543Z,114.62
2018-03-03T03:17:53.919Z,112.45
2018-03-03T03:20:20.587Z,115.30
2018-03-03T03:22:46.874Z,117.10
2018-03-03T03:25:13.085Z,116.37
2018-03-03T03:27:40.341Z,121.75
2018-03-03T03:30:06.616Z,110.90
2018-03-03T03:32:33.590Z,112.90
2018-03-03T03:34:59.836Z,117.35
2018-03-03T03:37:27.510Z,112.03
2018-03-03T03:39:53.657Z,102.62
2018-03-03T03:42:20.060Z,112.75
2018-03-03T03:44:46.286Z,112.62
2018-03-03T03:47:12.832Z,124.82
2018-03-03T03:49:39.976Z,111.65
2018-03-03T03:52:06.205Z,110.32
2018-03-03T03:54:33.414Z,115.05
2018-03-03T03:56:59.675Z,104.30
2018-03-03T03:59:26.794Z,108.72
2018-03-03T04:01:53.044Z,110.68
2018-03-03T04:04:19.255Z,115.93
2018-03-03T04:06:46.110Z,112.88
2018-03-03T04:09:12.318Z,117.00
2018-03-03T04:11:38.521Z,112.88
2018-03-03T04:14:05.587Z,109.50
2018-03-03T04:16:32.526Z,112.30
2018-03-03T04:18:59.708Z,118.20
2018-03-03T04:21:25.866Z,110.68
2018-03-03T04:23:52.102Z,107.53
2018-03-03T04:26:18.285Z,117.93
2018-03-03T04:28:45.204Z,115.50
2018-03-03T04:31:11.314Z,110.35
2018-03-03T04:33:37.468Z,105.32
2018-03-03T04:36:03.678Z,105.43
2018-03-03T04:38:30.267Z,110.20
2018-03-03T04:40:56.369Z,111.88
2018-03-03T04:43:22.894Z,115.30
2018-03-03T04:45:49.531Z,106.65
2018-03-03T04:48:15.758Z,107.37
2018-03-03T04:50:42.766Z,108.85
2018-03-03T04:53:08.894Z,104.28
2018-03-03T04:55:35.369Z,102.53
2018-03-03T04:58:01.490Z,117.97
2018-03-03T05:00:34.159Z,106.15
2018-03-03T05:03:21.250Z,100.90
2018-03-03T05:05:53.539Z,108.25
2018-03-03T05:11:18.169Z,104.45
2018-03-03T05:13:44.463Z,109.45
2018-03-03T05:16:20.452Z,111.75
2018-03-03T05:18:52.957Z,111.82
2018-03-03T05:21:25.297Z,106.87
2018-03-03T05:23:57.961Z,116.95
2018-03-03T05:26:30.866Z,112.37
2018-03-03T05:29:18.470Z,116.90
2018-03-03T05:31:50.714Z,108.32
2018-03-03T05:34:27.627Z,105.70
2018-03-03T05:36:59.989Z,123.70
2018-03-03T05:39:33.347Z,105.90
2018-03-03T05:45:16.271Z,106.07
2018-03-03T05:47:48.664Z,107.25
2018-03-03T05:50:15.862Z,103.68
2018-03-03T05:52:48.192Z,102.68
2018-03-03T05:55:15.174Z,113.80
2018-03-03T05:58:00.209Z,103.45
2018-03-03T06:00:45.721Z,109.32
2018-03-03T06:03:13.002Z,102.95
2018-03-03T06:05:59.183Z,101.07
2018-03-03T06:08:41.261Z,105.20
2018-03-03T06:11:09.279Z,106.37
2018-03-03T06:13:36.183Z,107.45
2018-03-03T06:16:02.289Z,102.18
2018-03-03T06:18:29.178Z,106.28
2018-03-03T06:20:55.247Z,112.00
2018-03-03T06:23:21.466Z,96.10
2018-03-03T06:25:52.034Z,104.97
2018-03-03T06:28:19.039Z,106.45
2018-03-03T06:30:45.327Z,106.47
2018-03-03T06:33:12.364Z,106.55
2018-03-03T06:35:38.685Z,113.62
2018-03-03T06:38:04.868Z,98.95
2018-03-03T06:40:31.057Z,109.07
2018-03-03T06:42:57.230Z,99.80
2018-03-03T06:45:23.432Z,101.45
2018-03-03T06:47:49.790Z,115.82
2018-03-03T06:50:16.977Z,105.35
2018-03-03T06:52:52.868Z,103.25
2018-03-03T06:55:19.772Z,110.68
2018-03-03T06:57:46.062Z,106.50
2018-03-03T07:00:12.292Z,113.75
2018-03-03T07:02:38.461Z,110.40
2018-03-03T07:05:05.512Z,101.65
2018-03-03T07:07:31.679Z,95.53
2018-03-03T07:09:57.814Z,107.40
2018-03-03T07:12:24.139Z,100.00
2018-03-03T07:14:53.121Z,105.87
2018-03-03T07:17:19.252Z,103.57
2018-03-03T07:19:45.361Z,102.80
2018-03-03T07:22:11.787Z,104.50
2018-03-03T07:24:38.788Z,105.65
2018-03-03T07:27:05.235Z,100.40
2018-03-03T07:29:31.799Z,96.43
2018-03-03T07:31:57.905Z,136.82
2018-03-03T07:34:24.072Z,141.32
2018-03-03T07:36:50.255Z,130.77
2018-03-03T07:39:16.406Z,119.72
2018-03-03T07:41:42.514Z,109.45
2018-03-03T07:44:08.847Z,105.80
2018-03-03T07:46:35.075Z,101.80
2018-03-03T07:49:01.231Z,101.38
2018-03-03T07:51:27.630Z,107.43
2018-03-03T07:53:53.831Z,98.07
2018-03-03T07:56:20.017Z,98.82
2018-03-03T07:58:48.909Z,99.30
2018-03-03T08:01:15.790Z,104.70
2018-03-03T08:03:41.973Z,97.78
2018-03-03T08:06:08.860Z,101.25
2018-03-03T08:08:35.108Z,107.32
2018-03-03T08:11:01.330Z,110.22
2018-03-03T08:13:28.043Z,107.18
2018-03-03T08:15:54.344Z,104.80
2018-03-03T08:18:20.859Z,101.05
2018-03-03T08:20:48.025Z,100.45
2018-03-03T08:23:15.128Z,109.65
2018-03-03T08:25:42.394Z,108.93
2018-03-03T08:28:08.532Z,100.35
2018-03-03T08:30:34.786Z,104.22
2018-03-03T08:33:00.904Z,107.10
2018-03-03T08:35:27.937Z,137.32
2018-03-03T08:37:54.221Z,128.93
2018-03-03T08:40:23.382Z,124.20
2018-03-03T08:42:50.510Z,121.15
2018-03-03T08:45:16.775Z,113.97
2018-03-03T08:47:43.246Z,108.87
2018-03-03T08:50:09.528Z,104.40
2018-03-03T08:52:35.707Z,113.45
2018-03-03T08:55:03.896Z,104.90
2018-03-03T08:57:30.082Z,106.25
2018-03-03T08:59:56.972Z,110.40
2018-03-03T09:02:24.028Z,114.22
2018-03-03T09:04:57.103Z,111.82
2018-03-03T09:07:23.239Z,102.07
2018-03-03T09:09:49.905Z,115.30
2018-03-03T09:12:16.071Z,111.22
2018-03-03T09:14:43.232Z,103.95
2018-03-03T09:17:09.336Z,104.90
2018-03-03T09:19:35.581Z,118.07
2018-03-03T09:22:01.837Z,107.55
2018-03-03T09:24:28.003Z,108.05
2018-03-03T09:26:54.641Z,108.90
2018-03-03T09:29:21.380Z,112.15
2018-03-03T09:31:48.727Z,111.55
2018-03-03T09:34:15.546Z,109.50
2018-03-03T09:36:43.091Z,102.18
2018-03-03T09:39:09.330Z,100.87
2018-03-03T09:41:35.710Z,123.90
2018-03-03T09:44:01.816Z,116.28
2018-03-03T09:46:28.599Z,113.05
2018-03-03T09:48:54.752Z,114.75
2018-03-03T09:51:21.556Z,108.05
2018-03-03T09:53:47.961Z,116.10
2018-03-03T09:56:14.117Z,104.70
2018-03-03T09:58:40.912Z,115.88
2018-03-03T10:01:07.367Z,111.55
2018-03-03T10:03:33.456Z,105.93
2018-03-03T10:05:59.638Z,114.00
2018-03-03T10:08:26.540Z,104.93
2018-03-03T10:10:52.834Z,100.05
2018-03-03T10:13:19.132Z,109.87
2018-03-03T10:15:45.369Z,115.53
2018-03-03T10:18:11.646Z,123.22
2018-03-03T10:20:38.503Z,111.35
2018-03-03T10:23:06.449Z,94.43
2018-03-03T10:25:32.658Z,107.90
2018-03-03T10:27:58.858Z,120.18
2018-03-03T10:30:25.063Z,119.62
2018-03-03T10:32:52.037Z,104.40
2018-03-03T10:35:18.255Z,102.28
2018-03-03T10:37:46.909Z,108.60
2018-03-03T10:40:14.903Z,107.15
2018-03-03T10:42:41.173Z,106.75
2018-03-03T10:45:08.135Z,111.78
2018-03-03T10:47:34.607Z,102.35
2018-03-03T10:50:01.515Z,113.57
2018-03-03T10:52:28.413Z,108.03
2018-03-03T10:54:54.619Z,99.78
2018-03-03T10:57:21.327Z,105.57
2018-03-03T10:59:47.504Z,123.75
2018-03-03T11:02:13.746Z,109.97
2018-03-03T11:04:40.217Z,125.28
2018-03-03T11:07:06.409Z,162.50
2018-03-03T11:09:32.592Z,135.12
2018-03-03T11:11:58.896Z,104.60
2018-03-03T11:14:25.854Z,122.50
2018-03-03T11:16:52.138Z,142.40
2018-03-03T11:19:18.272Z,132.27
2018-03-03T11:21:44.606Z,131.35
2018-03-03T11:24:11.478Z,126.82
2018-03-03T11:26:38.536Z,114.40
2018-03-03T11:29:04.760Z,118.30
2018-03-03T11:31:30.897Z,116.47
2018-03-03T11:33:58.117Z,110.90
2018-03-03T11:36:25.193Z,112.12
2018-03-03T11:38:51.374Z,121.57
2018-03-03T11:41:17.721Z,111.53
2018-03-03T11:43:45.570Z,109.43
2018-03-03T11:46:12.524Z,108.53
2018-03-03T11:48:39.978Z,110.03
2018-03-03T11:51:06.123Z,106.40
2018-03-03T11:53:32.421Z,103.97
2018-03-03T11:55:58.950Z,102.05
2018-03-03T11:58:25.955Z,105.93
2018-03-03T12:00:52.081Z,104.10
2018-03-03T12:03:19.101Z,100.45
2018-03-03T12:05:45.404Z,108.20
2018-03-03T12:08:12.458Z,104.55
2018-03-03T12:10:38.677Z,104.82
2018-03-03T12:13:06.805Z,110.53
2018-03-03T12:15:33.040Z,111.28
2018-03-03T12:17:59.205Z,103.07
2018-03-03T12:20:26.181Z,105.32
2018-03-03T12:22:52.308Z,103.93
2018-03-03T12:25:19.457Z,100.78
2018-03-03T12:27:46.501Z,110.32
2018-03-03T12:30:12.627Z,103.55
2018-03-03T12:32:38.743Z,106.15
2018-03-03T12:35:04.902Z,105.32
2018-03-03T12:37:31.073Z,108.87
2018-03-03T12:39:58.887Z,112.62
2018-03-03T12:42:25.008Z,109.68
2018-03-03T12:44:51.218Z,105.37
2018-03-03T12:47:17.670Z,106.43
2018-03-03T12:49:43.814Z,97.88
2018-03-03T12:52:09.904Z,103.40
2018-03-03T12:54:36.654Z,103.28
2018-03-03T12:57:02.740Z,99.65
2018-03-03T12:59:30.019Z,98.47
2018-03-03T13:01:57.681Z,102.70
2018-03-03T13:04:23.880Z,98.55
2018-03-03T13:06:50.442Z,109.68
2018-03-03T13:09:16.721Z,101.97
2018-03-03T13:11:42.964Z,108.80
2018-03-03T13:14:09.506Z,110.57
2018-03-03T13:16:35.725Z,103.97
2018-03-03T13:19:02.912Z,106.37
2018-03-03T13:21:28.964Z,103.05
2018-03-03T13:23:56.393Z,105.57
2018-03-03T13:26:23.895Z,98.43
2018-03-03T13:28:51.531Z,113.55
2018-03-03T13:31:18.133Z,97.35
2018-03-03T13:33:44.213Z,102.32
2018-03-03T13:36:10.932Z,106.47
2018-03-03T13:38:37.454Z,104.25
2018-03-03T13:41:04.325Z,111.68
2018-03-03T13:43:31.853Z,96.47
2018-03-03T13:45:58.032Z,109.55
2018-03-03T13:48:25.933Z,104.35
2018-03-03T13:50:53.379Z,100.30
2018-03-03T13:53:20.266Z,100.32
2018-03-03T13:55:48.483Z,100.30
2018-03-03T13:58:15.617Z,100.57
2018-03-03T14:00:42.115Z,100.28
2018-03-03T14:03:08.599Z,109.12
2018-03-03T14:05:35.801Z,98.40
2018-03-03T14:08:02.216Z,116.65
2018-03-03T14:10:28.416Z,111.45
2018-03-03T14:12:54.623Z,109.68
2018-03-03T14:15:22.583Z,105.15
2018-03-03T14:17:48.828Z,102.82
2018-03-03T14:20:16.031Z,108.93
2018-03-03T14:22:46.149Z,107.40
2018-03-03T14:25:12.981Z,115.45
2018-03-03T14:27:39.973Z,136.10
2018-03-03T14:30:07.746Z,120.55
2018-03-03T14:32:35.333Z,135.88
2018-03-03T14:35:04.382Z,115.85
2018-03-03T14:37:30.619Z,105.37
2018-03-03T14:39:56.636Z,117.25
2018-03-03T14:42:23.393Z,110.45
2018-03-03T14:44:50.064Z,113.75
2018-03-03T14:47:16.247Z,99.05
2018-03-03T14:49:42.429Z,106.32
2018-03-03T14:52:08.606Z,101.28
2018-03-03T14:54:34.767Z,106.72
2018-03-03T14:57:00.919Z,104.87
2018-03-03T14:59:27.077Z,104.32
2018-03-03T15:01:53.956Z,97.22
2018-03-03T15:04:20.137Z,98.97
2018-03-03T15:06:46.242Z,98.82
2018-03-03T15:09:12.827Z,93.12
2018-03-03T15:11:39.174Z,98.97
2018-03-03T15:14:05.894Z,95.22
2018-03-03T15:16:32.107Z,93.68
2018-03-03T15:18:58.505Z,86.78
2018-03-03T15:21:25.357Z,95.12
2018-03-03T15:23:51.465Z,95.05
2018-03-03T15:26:18.057Z,101.07
2018-03-03T15:28:44.263Z,98.50
2018-03-03T15:31:10.510Z,107.37
2018-03-03T15:33:37.446Z,101.00
2018-03-03T15:36:03.715Z,94.47
2018-03-03T15:38:29.810Z,93.30
2018-03-03T15:40:55.985Z,93.97
2018-03-03T15:43:22.271Z,102.45
2018-03-03T15:45:49.516Z,91.53
2018-03-03T15:48:16.603Z,96.25
2018-03-03T15:50:42.921Z,93.55
2018-03-03T15:53:09.105Z,93.15
2018-03-03T15:55:35.830Z,98.20
2018-03-03T15:58:02.331Z,94.07
2018-03-03T16:00:28.877Z,89.87
2018-03-03T16:02:56.157Z,98.45
2018-03-03T16:05:23.957Z,92.28
2018-03-03T16:07:51.253Z,96.78
2018-03-03T16:10:17.526Z,102.57
2018-03-03T16:12:43.679Z,98.87
2018-03-03T16:15:09.831Z,98.07
2018-03-03T16:17:36.624Z,97.90
2018-03-03T16:20:04.526Z,97.95
2018-03-03T16:22:30.820Z,121.28
2018-03-03T16:24:57.812Z,94.97
2018-03-03T16:27:24.540Z,103.25
2018-03-03T16:29:51.307Z,98.60
2018-03-03T16:32:17.555Z,97.95
2018-03-03T16:34:44.504Z,100.22
2018-03-03T16:37:11.735Z,104.68
2018-03-03T16:39:37.908Z,100.40
2018-03-03T16:42:04.363Z,97.75
2018-03-03T16:44:30.583Z,112.47
2018-03-03T16:46:57.005Z,107.03
2018-03-03T16:49:23.951Z,113.35
2018-03-03T16:51:50.202Z,104.78
2018-03-03T16:54:16.718Z,104.35
2018-03-03T16:56:42.928Z,94.85
2018-03-03T16:59:11.006Z,107.37
2018-03-03T17:01:37.209Z,105.68
2018-03-03T17:04:03.583Z,93.00
2018-03-03T17:06:29.838Z,104.25
2018-03-03T17:08:56.339Z,98.60
2018-03-03T17:11:22.533Z,101.97
2018-03-03T17:13:50.991Z,102.80
2018-03-03T17:16:17.177Z,100.53
2018-03-03T17:18:43.861Z,96.10
2018-03-03T17:21:09.948Z,99.50
2018-03-03T17:23:36.215Z,94.37
2018-03-03T17:26:04.250Z,96.45
2018-03-03T17:28:30.682Z,92.80
2018-03-03T17:30:57.630Z,96.20
2018-03-03T17:33:26.022Z,101.10
2018-03-03T17:35:52.851Z,94.55
2018-03-03T17:38:20.368Z,91.28
2018-03-03T17:40:46.467Z,102.18
2018-03-03T17:43:13.260Z,99.68
2018-03-03T17:45:39.435Z,102.68
2018-03-03T17:48:07.091Z,103.22
2018-03-03T17:50:33.241Z,99.82
2018-03-03T17:52:59.512Z,114.93
2018-03-03T17:55:26.383Z,105.00
2018-03-03T17:57:55.464Z,102.50
2018-03-03T18:00:23.352Z,105.28
2018-03-03T18:02:49.608Z,99.32
2018-03-03T18:05:15.679Z,108.72
2018-03-03T18:07:42.218Z,111.50
2018-03-03T18:10:09.385Z,104.82
2018-03-03T18:12:35.450Z,110.53
2018-03-03T18:15:01.559Z,95.30
2018-03-03T18:17:28.760Z,105.35
2018-03-03T18:19:54.885Z,110.28
2018-03-03T18:22:21.880Z,101.07
2018-03-03T18:24:48.670Z,107.15
2018-03-03T18:27:14.799Z,120.15
2018-03-03T18:29:40.921Z,110.10
2018-03-03T18:32:07.884Z,104.12
2018-03-03T18:34:33.925Z,108.32
2018-03-03T18:37:00.137Z,108.93
2018-03-03T18:39:26.523Z,105.70
2018-03-03T18:41:53.346Z,109.18
2018-03-03T18:44:19.870Z,106.03
2018-03-03T18:46:46.058Z,104.12
2018-03-03T18:49:12.188Z,108.65
2018-03-03T18:51:38.333Z,109.15
2018-03-03T18:54:05.571Z,109.12
2018-03-03T18:56:32.161Z,113.20
2018-03-03T18:58:58.385Z,98.53
2018-03-03T19:01:25.572Z,109.87
2018-03-03T19:03:52.014Z,119.75
2018-03-03T19:06:18.848Z,123.65
2018-03-03T19:08:45.864Z,107.50
2018-03-03T19:11:12.761Z,107.80
2018-03-03T19:13:39.725Z,115.70
2018-03-03T19:16:08.279Z,116.65
2018-03-03T19:18:35.944Z,116.10
2018-03-03T19:21:02.431Z,99.32
2018-03-03T19:23:28.747Z,108.20
2018-03-03T19:25:54.883Z,109.55
2018-03-03T19:28:23.205Z,121.32
2018-03-03T19:30:49.834Z,100.95
2018-03-03T19:33:19.055Z,107.70
2018-03-03T19:35:45.335Z,108.82
2018-03-03T19:38:11.508Z,120.35
2018-03-03T19:40:37.762Z,134.27
2018-03-03T19:43:04.692Z,119.45
2018-03-03T19:45:30.780Z,112.60
2018-03-03T19:47:57.370Z,111.05
2018-03-03T19:50:23.520Z,122.07
2018-03-03T19:52:49.676Z,112.95
2018-03-03T19:55:16.029Z,115.78
2018-03-03T19:57:43.154Z,113.88
2018-03-03T20:00:09.583Z,105.75
2018-03-03T20:02:36.985Z,126.47
2018-03-03T20:05:03.167Z,113.50
2018-03-03T20:07:30.035Z,108.75
2018-03-03T20:09:56.167Z,123.35
2018-03-03T20:12:22.272Z,120.20
2018-03-03T20:14:49.099Z,113.37
2018-03-03T20:17:15.144Z,110.70
2018-03-03T20:19:42.291Z,119.47
2018-03-03T20:22:08.368Z,118.18
2018-03-03T20:24:34.524Z,115.97
2018-03-03T20:27:00.618Z,119.75
2018-03-03T20:29:27.634Z,112.05
2018-03-03T20:31:53.707Z,113.78
2018-03-03T20:34:19.975Z,103.70
2018-03-03T20:36:46.174Z,129.05
2018-03-03T20:39:12.995Z,117.10
2018-03-03T20:41:39.824Z,116.22
2018-03-03T20:44:05.967Z,117.50
2018-03-03T20:46:32.598Z,113.90
2018-03-03T20:48:59.562Z,116.60
2018-03-03T20:51:26.578Z,118.85
2018-03-03T20:53:53.484Z,123.05
2018-03-03T20:56:20.163Z,120.15
2018-03-03T20:58:46.345Z,106.85
2018-03-03T21:01:15.026Z,112.70
2018-03-03T21:03:42.782Z,123.47
2018-03-03T21:06:09.033Z,119.32
2018-03-03T21:08:35.972Z,116.50
2018-03-03T21:11:03.793Z,132.55
2018-03-03T21:13:30.676Z,118.22
2018-03-03T21:15:57.052Z,122.57
2018-03-03T21:18:24.098Z,124.12
2018-03-03T21:23:22.451Z,119.95
2018-03-03T21:25:49.040Z,112.43
2018-03-03T21:28:15.322Z,118.05
2018-03-03T21:30:41.903Z,113.00
2018-03-03T21:33:08.749Z,124.72
2018-03-03T21:35:36.919Z,125.78
2018-03-03T21:38:03.798Z,123.28
2018-03-03T21:40:30.263Z,105.95
2018-03-03T21:42:58.159Z,107.90
2018-03-03T21:45:24.256Z,119.03
2018-03-03T21:47:50.890Z,120.82
2018-03-03T21:50:18.574Z,118.25
2018-03-03T21:52:44.731Z,118.70
2018-03-03T21:55:11.336Z,116.70
2018-03-03T21:57:38.702Z,126.30
2018-03-03T22:00:06.359Z,114.65
2018-03-03T22:02:33.442Z,116.35
2018-03-03T22:04:59.676Z,129.73
2018-03-03T22:07:26.400Z,114.88
2018-03-03T22:09:53.314Z,123.05
2018-03-03T22:12:19.521Z,125.57
2018-03-03T22:14:45.654Z,107.25
2018-03-03T22:17:12.654Z,117.03
2018-03-03T22:19:38.882Z,120.82
2018-03-03T22:22:06.027Z,119.35
2018-03-03T22:24:35.746Z,117.90
2018-03-03T22:27:02.224Z,116.97
2018-03-03T22:29:29.068Z,120.57
2018-03-03T22:31:56.390Z,116.30
2018-03-03T22:34:22.665Z,119.90
2018-03-03T22:36:48.803Z,117.55
2018-03-03T22:39:15.445Z,129.68
2018-03-03T22:41:41.535Z,123.53
2018-03-03T22:44:07.898Z,124.22
2018-03-03T22:46:34.046Z,129.18
2018-03-03T22:49:01.644Z,111.93
2018-03-03T22:51:28.031Z,128.02
2018-03-03T22:53:59.276Z,111.25
2018-03-03T22:56:25.396Z,119.32
2018-03-03T22:58:52.654Z,116.57
2018-03-03T23:01:18.751Z,122.95
2018-03-03T23:03:44.914Z,105.82
2018-03-03T23:06:12.779Z,117.57
2018-03-03T23:08:39.680Z,115.85
2018-03-03T23:11:06.012Z,119.90
2018-03-03T23:13:32.426Z,117.30
2018-03-03T23:15:58.716Z,125.00
2018-03-03T23:18:25.928Z,123.72
2018-03-03T23:20:52.593Z,114.90
2018-03-03T23:23:18.972Z,122.03
2018-03-03T23:25:45.090Z,120.72
2018-03-03T23:28:12.663Z,117.82
2018-03-03T23:30:38.743Z,122.28
2018-03-03T23:33:10.348Z,124.12
2018-03-03T23:35:37.057Z,124.18
2018-03-03T23:38:04.302Z,114.50
2018-03-03T23:40:30.396Z,121.78
2018-03-03T23:42:57.582Z,117.47
2018-03-03T23:45:23.740Z,126.43
2018-03-03T23:47:49.918Z,122.25
2018-03-03T23:50:18.087Z,123.28
2018-03-03T23:52:44.170Z,128.50
2018-03-03T23:55:10.327Z,123.35
2018-03-03T23:57:37.596Z,122.05
